createdAt,value
2017-09-05T00:01:42.230Z,7.70
2017-09-05T00:04:09.771Z,7.93
2017-09-05T00:06:37.698Z,9.95
2017-09-05T00:09:21.054Z,9.60
2017-09-05T00:12:04.433Z,8.00
2017-09-05T00:14:48.760Z,8.90
2017-09-05T00:17:27.591Z,8.90
2017-09-05T00:19:57.548Z,8.90
2017-09-05T00:22:25.084Z,7.93
2017-09-05T00:24:52.629Z,7.97
2017-09-05T00:27:20.209Z,8.52
2017-09-05T00:29:47.754Z,8.77
2017-09-05T00:32:15.593Z,8.70
2017-09-05T00:34:43.128Z,8.20
2017-09-05T00:37:10.665Z,8.90
2017-09-05T00:39:38.551Z,9.07
2017-09-05T00:42:06.089Z,8.80
2017-09-05T00:44:33.630Z,8.82
2017-09-05T00:47:01.239Z,11.18
2017-09-05T00:49:28.782Z,10.05
2017-09-05T00:51:56.372Z,10.32
2017-09-05T00:54:23.927Z,11.20
2017-09-05T00:56:51.521Z,11.88
2017-09-05T00:59:19.065Z,12.20
2017-09-05T01:01:46.789Z,12.68
2017-09-05T01:04:14.334Z,12.40
2017-09-05T01:06:41.921Z,11.98
2017-09-05T01:09:09.473Z,12.43
2017-09-05T01:11:37.338Z,12.35
2017-09-05T01:14:04.886Z,11.93
2017-09-05T01:16:32.433Z,13.07
2017-09-05T01:19:00.688Z,13.30
2017-09-05T01:21:28.233Z,14.10
2017-09-05T01:23:55.773Z,13.52
2017-09-05T01:26:23.358Z,13.35
2017-09-05T01:28:50.943Z,13.23
2017-09-05T01:31:18.485Z,13.45
2017-09-05T01:33:46.177Z,13.75
2017-09-05T01:36:13.727Z,13.45
2017-09-05T01:38:41.282Z,12.90
2017-09-05T01:41:08.869Z,14.00
2017-09-05T01:43:36.458Z,13.82
2017-09-05T01:46:04.000Z,13.27
2017-09-05T01:48:32.068Z,14.38
2017-09-05T01:50:59.622Z,15.45
2017-09-05T01:53:27.172Z,14.73
2017-09-05T01:55:54.761Z,14.70
2017-09-05T01:58:22.312Z,14.80
2017-09-05T02:00:49.896Z,15.15
2017-09-05T02:03:17.493Z,16.42
2017-09-05T02:05:45.037Z,16.05
2017-09-05T02:08:12.578Z,17.12
2017-09-05T02:10:40.205Z,15.77
2017-09-05T02:13:07.744Z,15.25
2017-09-05T02:15:35.333Z,17.30
2017-09-05T02:18:03.025Z,17.05
2017-09-05T02:20:30.609Z,16.70
2017-09-05T02:22:58.157Z,18.30
2017-09-05T02:25:25.745Z,16.77
2017-09-05T02:27:53.289Z,17.50
2017-09-05T02:30:20.876Z,17.60
2017-09-05T02:32:48.426Z,16.55
2017-09-05T02:35:16.019Z,16.92
2017-09-05T02:37:43.564Z,17.92
2017-09-05T02:40:11.533Z,17.12
2017-09-05T02:42:39.072Z,18.77
2017-09-05T02:45:06.609Z,17.40
2017-09-05T02:47:34.678Z,17.23
2017-09-05T02:50:02.227Z,16.37
2017-09-05T02:52:29.776Z,16.52
2017-09-05T02:54:57.366Z,17.70
2017-09-05T02:57:24.913Z,17.15
2017-09-05T02:59:52.603Z,17.37
2017-09-05T03:02:20.618Z,15.77
2017-09-05T03:04:48.153Z,15.68
2017-09-05T03:07:15.698Z,16.77
2017-09-05T03:09:43.278Z,17.45
2017-09-05T03:12:10.961Z,16.65
2017-09-05T03:14:38.496Z,16.35
2017-09-05T03:17:06.041Z,16.90
2017-09-05T03:19:34.966Z,16.17
2017-09-05T03:22:02.514Z,15.30
2017-09-05T03:24:30.107Z,17.00
2017-09-05T03:26:57.696Z,16.62
2017-09-05T03:29:25.242Z,15.77
2017-09-05T03:31:57.990Z,16.52
2017-09-05T03:34:25.534Z,16.62
2017-09-05T03:36:53.121Z,15.23
2017-09-05T03:39:20.656Z,16.23
2017-09-05T03:41:48.234Z,15.02
2017-09-05T03:44:15.778Z,16.08
2017-09-05T03:46:43.623Z,15.52
2017-09-05T03:49:11.166Z,15.93
2017-09-05T03:51:38.709Z,15.60
2017-09-05T03:54:06.298Z,15.63
2017-09-05T03:56:33.886Z,15.32
2017-09-05T03:59:01.429Z,15.13
2017-09-05T04:01:29.013Z,15.75
2017-09-05T04:03:56.558Z,16.02
2017-09-05T04:06:24.333Z,14.68
2017-09-05T04:08:51.902Z,14.63
2017-09-05T04:11:19.497Z,15.60
2017-09-05T04:13:47.041Z,14.87
2017-09-05T04:16:14.752Z,15.55
2017-09-05T04:18:42.711Z,15.98
2017-09-05T04:21:10.252Z,15.38
2017-09-05T04:23:37.948Z,14.50
2017-09-05T04:26:05.505Z,15.32
2017-09-05T04:28:33.105Z,13.90
2017-09-05T04:31:00.702Z,14.70
2017-09-05T04:33:28.271Z,15.35
2017-09-05T04:35:55.867Z,15.27
2017-09-05T04:38:23.420Z,15.65
2017-09-05T04:40:51.009Z,16.40
2017-09-05T04:43:18.558Z,16.45
2017-09-05T04:45:46.149Z,16.50
2017-09-05T04:48:13.689Z,16.25
2017-09-05T04:50:41.289Z,15.93
2017-09-05T04:53:08.846Z,16.02
2017-09-05T04:55:37.160Z,16.17
2017-09-05T04:58:04.747Z,16.90
2017-09-05T05:00:32.330Z,15.57
2017-09-05T05:02:59.910Z,16.08
2017-09-05T05:05:27.451Z,15.63
2017-09-05T05:07:55.039Z,16.02
2017-09-05T05:10:22.572Z,14.98
2017-09-05T05:12:50.149Z,15.18
2017-09-05T05:15:18.122Z,15.82
2017-09-05T05:17:45.989Z,15.23
2017-09-05T05:20:13.528Z,16.30
2017-09-05T05:22:41.117Z,16.80
2017-09-05T05:25:08.701Z,16.40
2017-09-05T05:27:36.244Z,15.70
2017-09-05T05:30:04.146Z,16.25
2017-09-05T05:32:31.690Z,16.37
2017-09-05T05:34:59.233Z,15.65
2017-09-05T05:37:26.819Z,15.77
2017-09-05T05:39:54.401Z,16.60
2017-09-05T05:42:21.943Z,15.90
2017-09-05T05:44:49.513Z,16.67
2017-09-05T05:47:17.048Z,17.05
2017-09-05T05:49:44.924Z,16.60
2017-09-05T05:52:12.461Z,17.45
2017-09-05T05:54:39.993Z,17.40
2017-09-05T05:57:07.579Z,16.83
2017-09-05T05:59:35.291Z,17.75
2017-09-05T06:02:02.829Z,17.75
2017-09-05T06:04:30.378Z,15.85
2017-09-05T06:06:57.958Z,16.90
2017-09-05T06:09:25.537Z,17.62
2017-09-05T06:11:53.089Z,17.12
2017-09-05T06:14:20.982Z,17.52
2017-09-05T06:16:48.675Z,15.63
2017-09-05T06:19:16.645Z,17.40
2017-09-05T06:21:44.194Z,16.70
2017-09-05T06:24:11.743Z,16.33
2017-09-05T06:26:39.601Z,15.20
2017-09-05T06:29:07.154Z,15.57
2017-09-05T06:31:34.723Z,16.45
2017-09-05T06:34:02.318Z,16.08
2017-09-05T06:36:29.858Z,15.77
2017-09-05T06:38:57.438Z,16.00
2017-09-05T06:41:24.995Z,14.85
2017-09-05T06:43:52.606Z,15.32
2017-09-05T06:46:20.154Z,13.48
2017-09-05T06:48:47.710Z,14.77
2017-09-05T06:51:15.667Z,13.93
2017-09-05T06:53:43.208Z,13.73
2017-09-05T06:56:10.740Z,13.20
2017-09-05T06:58:38.335Z,13.52
2017-09-05T07:01:05.926Z,13.65
2017-09-05T07:03:33.485Z,14.00
2017-09-05T07:06:01.080Z,14.15
2017-09-05T07:08:28.630Z,14.32
2017-09-05T07:10:56.574Z,13.48
2017-09-05T07:13:24.129Z,13.40
2017-09-05T07:15:51.674Z,14.18
2017-09-05T07:18:19.545Z,12.75
2017-09-05T07:20:47.137Z,12.37
2017-09-05T07:23:14.680Z,12.52
2017-09-05T07:25:42.273Z,12.48
2017-09-05T07:28:09.825Z,12.43
2017-09-05T07:30:37.426Z,12.18
2017-09-05T07:33:04.990Z,12.15
2017-09-05T07:35:32.976Z,11.60
2017-09-05T07:38:00.527Z,11.27
2017-09-05T07:40:28.077Z,11.70
2017-09-05T07:42:55.666Z,11.73
2017-09-05T07:45:23.218Z,11.70
2017-09-05T07:47:50.841Z,11.32
2017-09-05T07:50:18.389Z,11.30
2017-09-05T07:52:45.978Z,10.93
2017-09-05T07:55:13.538Z,10.80
2017-09-05T07:57:41.441Z,10.20
2017-09-05T08:00:08.999Z,11.00
2017-09-05T08:02:36.545Z,11.00
2017-09-05T08:05:04.134Z,11.00
2017-09-05T08:07:31.685Z,11.40
2017-09-05T08:10:00.601Z,9.77
2017-09-05T08:12:28.150Z,10.43
2017-09-05T08:14:58.553Z,9.60
2017-09-05T08:17:26.450Z,9.85
2017-09-05T08:19:54.017Z,9.40
2017-09-05T08:22:21.601Z,8.70
2017-09-05T08:24:49.453Z,8.60
2017-09-05T08:27:17.001Z,9.43
2017-09-05T08:29:44.546Z,9.95
2017-09-05T08:32:15.744Z,9.00
2017-09-05T08:34:43.288Z,8.93
2017-09-05T08:37:10.881Z,9.27
2017-09-05T08:39:38.421Z,8.57
2017-09-05T08:42:06.041Z,9.00
2017-09-05T08:44:33.590Z,8.85
2017-09-05T08:47:01.150Z,9.30
2017-09-05T08:49:28.803Z,9.20
2017-09-05T08:51:56.458Z,10.02
2017-09-05T08:54:27.658Z,9.10
2017-09-05T08:56:55.242Z,8.98
2017-09-05T08:59:23.219Z,9.23
2017-09-05T09:01:50.767Z,8.70
2017-09-05T09:04:18.313Z,8.90
2017-09-05T09:06:45.914Z,9.13
2017-09-05T09:09:13.462Z,8.50
2017-09-05T09:11:41.037Z,10.40
2017-09-05T09:14:08.594Z,8.17
2017-09-05T09:16:36.649Z,8.60
2017-09-05T09:19:04.690Z,7.50
2017-09-05T09:21:32.255Z,8.07
2017-09-05T09:23:59.842Z,8.63
2017-09-05T09:26:27.388Z,8.10
2017-09-05T09:28:54.966Z,7.50
2017-09-05T09:31:22.824Z,6.93
2017-09-05T09:33:50.357Z,7.80
2017-09-05T09:36:17.921Z,7.30
2017-09-05T09:38:45.898Z,7.60
2017-09-05T09:41:13.442Z,6.97
2017-09-05T09:43:40.978Z,7.93
2017-09-05T09:46:08.562Z,7.70
2017-09-05T09:48:36.102Z,7.40
2017-09-05T09:51:03.688Z,8.10
2017-09-05T09:53:31.233Z,6.83
2017-09-05T09:55:58.823Z,6.53
2017-09-05T09:58:26.362Z,7.50
2017-09-05T10:00:54.539Z,6.97
2017-09-05T10:03:22.954Z,6.90
2017-09-05T10:05:50.531Z,7.40
2017-09-05T10:08:18.133Z,5.90
2017-09-05T10:10:46.421Z,6.10
2017-09-05T10:13:13.976Z,5.53
2017-09-05T10:15:41.538Z,6.60
2017-09-05T10:18:09.213Z,5.90
2017-09-05T10:20:37.157Z,5.60
2017-09-05T10:23:04.764Z,5.50
2017-09-05T10:25:33.042Z,5.47
2017-09-05T10:28:00.596Z,5.27
2017-09-05T10:30:28.156Z,5.30
2017-09-05T10:32:56.720Z,5.10
2017-09-05T10:35:24.665Z,4.20
2017-09-05T10:37:52.992Z,3.50
2017-09-05T10:40:20.568Z,3.80
2017-09-05T10:42:48.565Z,4.27
2017-09-05T10:45:16.134Z,3.70
2017-09-05T10:47:43.711Z,4.50
2017-09-05T10:50:11.730Z,3.63
2017-09-05T10:52:39.342Z,3.93
2017-09-05T10:55:07.649Z,4.60
2017-09-05T10:57:35.250Z,5.97
2017-09-05T11:00:02.858Z,3.50
2017-09-05T11:02:30.600Z,3.90
2017-09-05T11:04:58.159Z,3.90
2017-09-05T11:07:25.707Z,4.20
2017-09-05T11:09:53.286Z,5.53
2017-09-05T11:12:20.835Z,2.87
2017-09-05T11:14:48.447Z,3.03
2017-09-05T11:17:21.077Z,3.30
2017-09-05T11:19:48.791Z,3.23
2017-09-05T11:22:16.375Z,3.20
2017-09-05T11:24:47.042Z,2.90
2017-09-05T11:27:14.601Z,2.87
2017-09-05T11:29:42.189Z,3.10
2017-09-05T11:32:09.767Z,3.03
2017-09-05T11:34:37.319Z,3.30
2017-09-05T11:37:07.354Z,3.27
2017-09-05T11:39:34.898Z,2.43
2017-09-05T11:42:02.784Z,3.37
2017-09-05T11:44:30.361Z,2.93
2017-09-05T11:46:57.922Z,2.93
2017-09-05T11:49:25.677Z,3.10
2017-09-05T11:51:53.255Z,3.23
2017-09-05T11:54:20.799Z,3.70
2017-09-05T11:56:48.419Z,3.47
2017-09-05T11:59:15.963Z,3.47
2017-09-05T12:01:43.545Z,3.27
2017-09-05T12:04:11.087Z,3.10
2017-09-05T12:09:07.424Z,3.93
2017-09-05T12:11:34.962Z,4.30
2017-09-05T12:14:03.224Z,4.43
2017-09-05T12:16:31.097Z,3.47
2017-09-05T12:18:58.766Z,3.80
2017-09-05T12:21:26.748Z,3.63
2017-09-05T12:23:54.310Z,3.90
2017-09-05T12:26:21.858Z,4.33
2017-09-05T12:28:49.442Z,4.07
2017-09-05T12:31:17.302Z,4.20
2017-09-05T12:33:44.882Z,4.10
2017-09-05T12:36:12.482Z,4.70
2017-09-05T12:38:40.137Z,3.57
2017-09-05T12:41:07.737Z,4.00
2017-09-05T12:43:35.299Z,3.90
2017-09-05T12:46:02.937Z,4.57
2017-09-05T12:48:30.551Z,4.43
2017-09-05T12:50:58.293Z,5.87
2017-09-05T12:53:25.834Z,4.67
2017-09-05T12:55:53.418Z,4.37
2017-09-05T12:58:21.010Z,4.20
2017-09-05T13:00:48.898Z,4.03
2017-09-05T13:03:16.449Z,4.10
2017-09-05T13:05:43.994Z,3.60
2017-09-05T13:08:12.001Z,3.80
2017-09-05T13:10:39.550Z,4.10
2017-09-05T13:13:07.094Z,4.10
2017-09-05T13:15:34.798Z,5.30
2017-09-05T13:18:05.042Z,4.20
2017-09-05T13:20:32.627Z,4.23
2017-09-05T13:23:00.182Z,3.93
2017-09-05T13:25:29.425Z,3.77
2017-09-05T13:27:57.148Z,6.90
2017-09-05T13:30:24.727Z,3.83
2017-09-05T13:32:52.280Z,4.10
2017-09-05T13:35:20.188Z,4.20
2017-09-05T13:37:47.767Z,4.17
2017-09-05T13:40:15.318Z,4.30
2017-09-05T13:42:42.917Z,4.10
2017-09-05T13:45:11.757Z,4.50
2017-09-05T13:47:39.309Z,4.40
2017-09-05T13:50:06.853Z,4.23
2017-09-05T13:52:34.973Z,4.17
2017-09-05T13:55:02.523Z,4.30
2017-09-05T13:57:30.078Z,3.60
2017-09-05T13:59:57.753Z,4.17
2017-09-05T14:02:25.337Z,4.73
2017-09-05T14:04:53.256Z,4.93
2017-09-05T14:07:20.873Z,4.00
2017-09-05T14:09:48.444Z,4.47
2017-09-05T14:12:16.052Z,4.90
2017-09-05T14:14:43.633Z,6.50
2017-09-05T14:17:11.468Z,4.63
2017-09-05T14:19:39.053Z,4.70
2017-09-05T14:22:06.642Z,5.03
2017-09-05T14:24:34.197Z,4.90
2017-09-05T14:27:02.218Z,4.23
2017-09-05T14:29:29.811Z,4.43
2017-09-05T14:31:57.406Z,3.87
2017-09-05T14:34:24.989Z,7.13
2017-09-05T14:36:52.533Z,5.17
2017-09-05T14:39:20.145Z,3.70
2017-09-05T14:41:47.684Z,3.90
2017-09-05T14:44:15.338Z,4.43
2017-09-05T14:46:42.873Z,4.07
2017-09-05T14:49:10.652Z,5.30
2017-09-05T14:51:38.215Z,4.23
2017-09-05T14:54:05.807Z,4.40
2017-09-05T14:56:33.414Z,4.47
2017-09-05T14:59:00.957Z,3.93
2017-09-05T15:01:28.725Z,4.20
2017-09-05T15:03:56.290Z,4.07
2017-09-05T15:06:24.144Z,6.30
2017-09-05T15:08:51.694Z,4.10
2017-09-05T15:11:19.237Z,4.30
2017-09-05T15:13:46.834Z,4.57
2017-09-05T15:16:14.543Z,4.50
2017-09-05T15:18:42.101Z,4.33
2017-09-05T15:21:09.837Z,4.80
2017-09-05T15:23:37.409Z,5.67
2017-09-05T15:26:05.015Z,4.80
2017-09-05T15:28:32.955Z,3.60
2017-09-05T15:31:00.718Z,4.10
2017-09-05T15:33:28.299Z,3.67
2017-09-05T15:35:58.294Z,3.20
2017-09-05T15:38:25.892Z,3.57
2017-09-05T15:40:53.473Z,3.23
2017-09-05T15:43:21.053Z,3.33
2017-09-05T15:45:48.602Z,3.17
2017-09-05T15:48:16.358Z,2.90
2017-09-05T15:50:43.906Z,3.53
2017-09-05T15:53:11.463Z,3.13
2017-09-05T15:55:39.066Z,2.90
2017-09-05T15:58:06.671Z,3.67
2017-09-05T16:00:34.282Z,2.80
2017-09-05T16:03:01.841Z,3.80
2017-09-05T16:05:29.427Z,2.97
2017-09-05T16:07:59.878Z,3.03
2017-09-05T16:10:27.449Z,3.10
2017-09-05T16:12:55.062Z,2.60
2017-09-05T16:15:24.413Z,3.20
2017-09-05T16:17:52.201Z,2.70
2017-09-05T16:20:19.788Z,3.40
2017-09-05T16:22:47.412Z,3.00
2017-09-05T16:25:14.991Z,3.33
2017-09-05T16:27:43.806Z,3.33
2017-09-05T16:30:11.809Z,3.33
2017-09-05T16:32:39.373Z,2.80
2017-09-05T16:35:06.929Z,2.50
2017-09-05T16:37:34.710Z,3.10
2017-09-05T16:40:02.301Z,3.20
2017-09-05T16:42:30.067Z,2.97
2017-09-05T16:44:57.626Z,2.43
2017-09-05T16:47:25.347Z,3.00
2017-09-05T16:49:53.319Z,2.67
2017-09-05T16:52:20.918Z,3.03
2017-09-05T16:54:49.623Z,2.60
2017-09-05T16:57:17.335Z,2.83
2017-09-05T16:59:44.925Z,2.63
2017-09-05T17:02:12.513Z,3.40
2017-09-05T17:04:40.121Z,3.40
2017-09-05T17:07:07.786Z,3.03
2017-09-05T17:09:35.380Z,2.73
2017-09-05T17:12:02.929Z,3.13
2017-09-05T17:14:30.830Z,3.13
2017-09-05T17:16:59.168Z,3.50
2017-09-05T17:19:26.735Z,3.33
2017-09-05T17:21:59.566Z,3.83
2017-09-05T17:24:27.113Z,3.67
2017-09-05T17:26:54.666Z,3.10
2017-09-05T17:29:22.242Z,3.00
2017-09-05T17:31:50.510Z,5.30
2017-09-05T17:34:18.096Z,3.53
2017-09-05T17:36:45.639Z,4.57
2017-09-05T17:39:13.297Z,3.70
2017-09-05T17:41:40.829Z,3.60
2017-09-05T17:44:08.779Z,3.47
2017-09-05T17:46:36.334Z,3.60
2017-09-05T17:49:03.874Z,3.40
2017-09-05T17:51:31.944Z,3.80
2017-09-05T17:53:59.481Z,3.80
2017-09-05T17:56:27.052Z,3.90
2017-09-05T17:58:54.632Z,3.67
2017-09-05T18:01:22.218Z,4.17
2017-09-05T18:03:50.145Z,3.90
2017-09-05T18:06:17.690Z,3.87
2017-09-05T18:08:45.229Z,4.10
2017-09-05T18:11:12.930Z,4.23
2017-09-05T18:13:40.509Z,4.10
2017-09-05T18:16:13.334Z,4.97
2017-09-05T18:18:41.002Z,4.30
2017-09-05T18:21:08.548Z,5.60
2017-09-05T18:23:36.249Z,3.90
2017-09-05T18:26:03.803Z,5.03
2017-09-05T18:28:31.410Z,4.90
2017-09-05T18:30:58.964Z,4.90
2017-09-05T18:33:26.549Z,5.47
2017-09-05T18:35:54.133Z,5.07
2017-09-05T18:38:21.823Z,5.53
2017-09-05T18:40:49.579Z,5.90
2017-09-05T18:43:17.125Z,4.83
2017-09-05T18:45:44.710Z,5.10
2017-09-05T18:48:12.245Z,5.20
2017-09-05T18:50:40.093Z,5.20
2017-09-05T18:53:07.633Z,5.30
2017-09-05T18:55:35.173Z,5.50
2017-09-05T18:58:03.097Z,5.17
2017-09-05T19:00:30.828Z,5.77
2017-09-05T19:02:58.370Z,5.33
2017-09-05T19:05:25.917Z,5.60
2017-09-05T19:07:53.570Z,5.50
2017-09-05T19:10:21.813Z,5.70
2017-09-05T19:12:51.248Z,5.17
2017-09-05T19:15:18.799Z,5.40
2017-09-05T19:17:47.014Z,5.77
2017-09-05T19:20:14.940Z,5.47
2017-09-05T19:22:42.489Z,5.90
2017-09-05T19:25:10.042Z,5.97
2017-09-05T19:27:37.626Z,6.80
2017-09-05T19:30:05.176Z,6.60
2017-09-05T19:32:32.866Z,5.90
2017-09-05T19:35:00.453Z,5.80
2017-09-05T19:37:27.998Z,6.27
2017-09-05T19:39:57.350Z,6.33
2017-09-05T19:42:24.897Z,6.20
2017-09-05T19:44:52.442Z,7.20
2017-09-05T19:47:20.043Z,6.33
2017-09-05T19:49:47.589Z,6.07
2017-09-05T19:52:15.197Z,5.77
2017-09-05T19:54:42.742Z,6.30
2017-09-05T19:57:10.377Z,5.77
2017-09-05T19:59:37.917Z,6.20
2017-09-05T20:02:05.497Z,6.13
2017-09-05T20:04:33.037Z,6.57
2017-09-05T20:07:00.615Z,5.80
2017-09-05T20:09:28.148Z,5.80
2017-09-05T20:11:56.112Z,6.20
2017-09-05T20:14:23.652Z,5.93
2017-09-05T20:16:51.184Z,5.90
2017-09-05T20:19:19.176Z,5.60
2017-09-05T20:21:46.714Z,5.93
2017-09-05T20:24:14.293Z,6.23
2017-09-05T20:26:41.870Z,6.37
2017-09-05T20:29:10.210Z,6.20
2017-09-05T20:31:38.270Z,6.10
2017-09-05T20:34:05.812Z,5.47
2017-09-05T20:36:33.350Z,6.60
2017-09-05T20:39:02.470Z,6.10
2017-09-05T20:41:30.122Z,5.40
2017-09-05T20:43:57.661Z,5.20
2017-09-05T20:46:25.595Z,5.47
2017-09-05T20:48:53.141Z,6.37
2017-09-05T20:51:20.682Z,5.77
2017-09-05T20:53:48.770Z,5.50
2017-09-05T20:56:16.310Z,6.07
2017-09-05T20:58:43.854Z,5.87
2017-09-05T21:01:11.436Z,5.10
2017-09-05T21:03:39.017Z,5.43
2017-09-05T21:06:06.557Z,5.90
2017-09-05T21:08:34.212Z,5.20
2017-09-05T21:11:01.757Z,4.93
2017-09-05T21:13:29.290Z,5.60
2017-09-05T21:15:57.320Z,5.80
2017-09-05T21:18:24.866Z,5.20
2017-09-05T21:20:52.805Z,5.30
2017-09-05T21:23:21.655Z,5.37
2017-09-05T21:25:49.208Z,4.13
2017-09-05T21:28:17.056Z,4.50
2017-09-05T21:30:44.607Z,4.53
2017-09-05T21:33:12.187Z,4.43
2017-09-05T21:35:40.035Z,4.60
2017-09-05T21:38:07.578Z,4.20
2017-09-05T21:40:35.134Z,3.83
2017-09-05T21:43:02.897Z,3.95
2017-09-05T21:45:30.450Z,4.30
2017-09-05T21:47:57.989Z,4.00
2017-09-05T21:50:25.601Z,4.00
2017-09-05T21:52:53.150Z,3.60
2017-09-05T21:55:20.691Z,3.70
2017-09-05T21:57:48.706Z,4.77
2017-09-05T22:00:16.255Z,3.97
2017-09-05T22:02:43.805Z,3.97
2017-09-05T22:05:11.890Z,4.00
2017-09-05T22:07:39.445Z,3.78
2017-09-05T22:10:06.995Z,4.10
2017-09-05T22:12:34.581Z,4.93
2017-09-05T22:15:09.419Z,3.90
2017-09-05T22:17:37.090Z,4.00
2017-09-05T22:20:10.257Z,3.90
2017-09-05T22:22:43.404Z,3.83
2017-09-05T22:25:16.686Z,4.12
2017-09-05T22:27:49.950Z,4.05
2017-09-05T22:30:18.166Z,4.20
2017-09-05T22:32:45.714Z,4.03
2017-09-05T22:35:13.255Z,3.80
2017-09-05T22:37:40.841Z,4.53
2017-09-05T22:40:08.413Z,4.50
2017-09-05T22:42:36.028Z,4.25
2017-09-05T22:45:03.566Z,4.20
2017-09-05T22:47:31.659Z,3.80
2017-09-05T22:49:59.205Z,4.50
2017-09-05T22:52:26.746Z,4.57
2017-09-05T22:54:54.335Z,3.95
2017-09-05T22:57:21.930Z,5.22
2017-09-05T22:59:49.470Z,4.77
2017-09-05T23:02:17.049Z,4.10
2017-09-05T23:04:44.729Z,4.13
2017-09-05T23:07:12.278Z,4.07
2017-09-05T23:09:41.843Z,3.97
2017-09-05T23:12:09.377Z,4.00
2017-09-05T23:14:36.927Z,4.12
2017-09-05T23:17:04.632Z,4.20
2017-09-05T23:19:32.592Z,3.87
2017-09-05T23:22:00.172Z,4.30
2017-09-05T23:24:27.709Z,4.50
2017-09-05T23:26:55.311Z,4.03
2017-09-05T23:29:22.853Z,4.40
2017-09-05T23:31:50.433Z,3.70
2017-09-05T23:34:17.973Z,4.90
2017-09-05T23:36:46.025Z,4.47
2017-09-05T23:39:13.574Z,3.90
2017-09-05T23:41:41.120Z,3.80
2017-09-05T23:44:08.707Z,3.70
2017-09-05T23:46:36.247Z,3.90
2017-09-05T23:49:03.834Z,3.55
2017-09-05T23:51:31.391Z,3.70
2017-09-05T23:53:59.247Z,3.77
2017-09-05T23:56:26.794Z,3.90
2017-09-05T23:58:54.377Z,3.20
